sensor_id;sensor_type;location;lat;lon;timestamp;P1;durP1;ratioP1;P2;durP2;ratioP2
27977;SDS011;15314;49.248;6.968;2023-06-14T00:00:44;10.02;;;9.23;;
27977;SDS011;15314;49.248;6.968;2023-06-14T00:01:46;10.40;;;9.63;;
27977;SDS011;15314;49.248;6.968;2023-06-14T00:02:47;11.10;;;10.10;;
27977;SDS011;15314;49.248;6.968;2023-06-14T00:03:48;10.38;;;9.50;;
27977;SDS011;15314;49.248;6.968;2023-06-14T00:04:49;10.63;;;9.82;;
27977;SDS011;15314;49.248;6.968;2023-06-14T00:05:52;10.93;;;10.10;;
27977;SDS011;15314;49.248;6.968;2023-06-14T00:06:53;10.23;;;9.40;;
27977;SDS011;15314;49.248;6.968;2023-06-14T00:07:56;10.93;;;10.02;;
27977;SDS011;15314;49.248;6.968;2023-06-14T00:08:59;11.43;;;10.63;;
27977;SDS011;15314;49.248;6.968;2023-06-14T00:09:59;11.27;;;10.38;;
27977;SDS011;15314;49.248;6.968;2023-06-14T00:11:00;10.38;;;9.57;;
27977;SDS011;15314;49.248;6.968;2023-06-14T00:12:01;11.27;;;10.32;;
27977;SDS011;15314;49.248;6.968;2023-06-14T00:13:02;10.52;;;9.23;;
27977;SDS011;15314;49.248;6.968;2023-06-14T00:14:04;10.68;;;9.75;;
27977;SDS011;15314;49.248;6.968;2023-06-14T00:15:05;12.88;;;9.75;;
27977;SDS011;15314;49.248;6.968;2023-06-14T00:16:06;11.32;;;9.88;;
27977;SDS011;15314;49.248;6.968;2023-06-14T00:17:07;10.60;;;9.60;;
27977;SDS011;15314;49.248;6.968;2023-06-14T00:18:08;10.52;;;9.73;;
27977;SDS011;15314;49.248;6.968;2023-06-14T00:19:11;10.80;;;9.90;;
27977;SDS011;15314;49.248;6.968;2023-06-14T00:20:13;10.82;;;9.88;;
27977;SDS011;15314;49.248;6.968;2023-06-14T00:21:13;10.18;;;9.48;;
27977;SDS011;15314;49.248;6.968;2023-06-14T00:22:14;10.63;;;9.93;;
27977;SDS011;15314;49.248;6.968;2023-06-14T00:23:15;10.98;;;10.18;;
27977;SDS011;15314;49.248;6.968;2023-06-14T00:24:16;9.90;;;9.13;;
27977;SDS011;15314;49.248;6.968;2023-06-14T00:25:17;11.15;;;10.35;;
27977;SDS011;15314;49.248;6.968;2023-06-14T00:26:17;11.48;;;10.25;;
27977;SDS011;15314;49.248;6.968;2023-06-14T00:27:18;11.15;;;10.25;;
27977;SDS011;15314;49.248;6.968;2023-06-14T00:28:18;10.40;;;9.55;;
27977;SDS011;15314;49.248;6.968;2023-06-14T00:29:20;11.15;;;10.05;;
27977;SDS011;15314;49.248;6.968;2023-06-14T00:30:21;11.50;;;10.57;;
27977;SDS011;15314;49.248;6.968;2023-06-14T00:31:22;10.68;;;9.85;;
27977;SDS011;15314;49.248;6.968;2023-06-14T00:32:23;11.38;;;10.35;;
27977;SDS011;15314;49.248;6.968;2023-06-14T00:33:25;10.75;;;9.90;;
27977;SDS011;15314;49.248;6.968;2023-06-14T00:34:26;10.90;;;10.00;;
27977;SDS011;15314;49.248;6.968;2023-06-14T00:35:27;10.68;;;9.63;;
27977;SDS011;15314;49.248;6.968;2023-06-14T00:36:27;10.60;;;9.90;;
27977;SDS011;15314;49.248;6.968;2023-06-14T00:37:28;10.20;;;9.50;;
27977;SDS011;15314;49.248;6.968;2023-06-14T00:38:29;10.05;;;9.05;;
27977;SDS011;15314;49.248;6.968;2023-06-14T00:39:29;11.05;;;10.07;;
27977;SDS011;15314;49.248;6.968;2023-06-14T00:40:30;10.63;;;9.82;;
27977;SDS011;15314;49.248;6.968;2023-06-14T00:41:31;10.73;;;9.70;;
27977;SDS011;15314;49.248;6.968;2023-06-14T00:42:31;10.85;;;10.07;;
27977;SDS011;15314;49.248;6.968;2023-06-14T00:43:33;11.57;;;10.55;;
27977;SDS011;15314;49.248;6.968;2023-06-14T00:44:34;11.13;;;10.20;;
27977;SDS011;15314;49.248;6.968;2023-06-14T00:45:35;10.45;;;9.63;;
27977;SDS011;15314;49.248;6.968;2023-06-14T00:46:36;10.88;;;9.98;;
27977;SDS011;15314;49.248;6.968;2023-06-14T00:47:36;11.05;;;9.93;;
27977;SDS011;15314;49.248;6.968;2023-06-14T00:48:38;11.15;;;10.05;;
27977;SDS011;15314;49.248;6.968;2023-06-14T00:49:40;10.20;;;9.40;;
27977;SDS011;15314;49.248;6.968;2023-06-14T00:50:41;10.30;;;9.60;;
27977;SDS011;15314;49.248;6.968;2023-06-14T00:51:45;10.75;;;10.07;;
27977;SDS011;15314;49.248;6.968;2023-06-14T00:52:46;11.52;;;10.15;;
27977;SDS011;15314;49.248;6.968;2023-06-14T00:53:47;10.40;;;9.60;;
27977;SDS011;15314;49.248;6.968;2023-06-14T00:54:48;10.52;;;9.82;;
27977;SDS011;15314;49.248;6.968;2023-06-14T00:55:48;10.55;;;9.85;;
27977;SDS011;15314;49.248;6.968;2023-06-14T00:56:49;9.68;;;8.93;;
27977;SDS011;15314;49.248;6.968;2023-06-14T00:57:50;11.35;;;10.35;;
27977;SDS011;15314;49.248;6.968;2023-06-14T00:58:51;15.05;;;10.57;;
27977;SDS011;15314;49.248;6.968;2023-06-14T00:59:52;11.70;;;10.98;;
27977;SDS011;15314;49.248;6.968;2023-06-14T01:00:53;10.85;;;9.93;;
27977;SDS011;15314;49.248;6.968;2023-06-14T01:01:54;10.57;;;9.88;;
27977;SDS011;15314;49.248;6.968;2023-06-14T01:02:55;11.13;;;10.07;;
27977;SDS011;15314;49.248;6.968;2023-06-14T01:03:56;10.38;;;9.50;;
27977;SDS011;15314;49.248;6.968;2023-06-14T01:04:57;10.52;;;9.63;;
27977;SDS011;15314;49.248;6.968;2023-06-14T01:07:33;10.20;;;9.30;;
27977;SDS011;15314;49.248;6.968;2023-06-14T01:11:33;10.48;;;9.65;;
27977;SDS011;15314;49.248;6.968;2023-06-14T01:13:20;10.50;;;9.70;;
27977;SDS011;15314;49.248;6.968;2023-06-14T01:14:24;11.47;;;10.33;;
27977;SDS011;15314;49.248;6.968;2023-06-14T01:15:27;11.07;;;10.05;;
27977;SDS011;15314;49.248;6.968;2023-06-14T01:16:30;10.82;;;10.13;;
27977;SDS011;15314;49.248;6.968;2023-06-14T01:17:32;10.63;;;9.82;;
27977;SDS011;15314;49.248;6.968;2023-06-14T01:18:34;10.60;;;9.65;;
27977;SDS011;15314;49.248;6.968;2023-06-14T01:19:34;10.85;;;10.07;;
27977;SDS011;15314;49.248;6.968;2023-06-14T01:20:35;10.35;;;9.60;;
27977;SDS011;15314;49.248;6.968;2023-06-14T01:21:39;10.38;;;9.57;;
27977;SDS011;15314;49.248;6.968;2023-06-14T01:22:51;11.45;;;10.55;;
27977;SDS011;15314;49.248;6.968;2023-06-14T01:23:55;10.98;;;10.07;;
27977;SDS011;15314;49.248;6.968;2023-06-14T01:24:56;10.88;;;9.98;;
27977;SDS011;15314;49.248;6.968;2023-06-14T01:25:58;11.15;;;10.25;;
27977;SDS011;15314;49.248;6.968;2023-06-14T01:27:00;10.98;;;10.18;;
27977;SDS011;15314;49.248;6.968;2023-06-14T01:28:03;10.50;;;9.70;;
27977;SDS011;15314;49.248;6.968;2023-06-14T01:29:11;10.93;;;9.95;;
27977;SDS011;15314;49.248;6.968;2023-06-14T01:30:17;10.90;;;10.10;;
27977;SDS011;15314;49.248;6.968;2023-06-14T01:31:20;10.35;;;9.65;;
27977;SDS011;15314;49.248;6.968;2023-06-14T01:32:23;11.13;;;10.13;;
27977;SDS011;15314;49.248;6.968;2023-06-14T01:33:26;10.65;;;9.82;;
27977;SDS011;15314;49.248;6.968;2023-06-14T01:34:28;9.68;;;8.98;;
27977;SDS011;15314;49.248;6.968;2023-06-14T01:35:29;10.95;;;9.85;;
27977;SDS011;15314;49.248;6.968;2023-06-14T01:36:29;10.68;;;9.95;;
27977;SDS011;15314;49.248;6.968;2023-06-14T01:37:30;10.30;;;9.60;;
27977;SDS011;15314;49.248;6.968;2023-06-14T01:38:31;10.27;;;9.57;;
27977;SDS011;15314;49.248;6.968;2023-06-14T01:39:32;10.57;;;9.88;;
27977;SDS011;15314;49.248;6.968;2023-06-14T01:40:34;10.23;;;9.52;;
27977;SDS011;15314;49.248;6.968;2023-06-14T01:41:35;10.52;;;9.65;;
27977;SDS011;15314;49.248;6.968;2023-06-14T01:42:37;10.70;;;9.77;;
27977;SDS011;15314;49.248;6.968;2023-06-14T01:43:39;11.50;;;10.55;;
27977;SDS011;15314;49.248;6.968;2023-06-14T01:44:41;11.40;;;10.40;;
27977;SDS011;15314;49.248;6.968;2023-06-14T01:45:44;10.82;;;9.90;;
27977;SDS011;15314;49.248;6.968;2023-06-14T01:46:47;11.25;;;10.30;;
27977;SDS011;15314;49.248;6.968;2023-06-14T01:47:48;10.15;;;9.38;;
27977;SDS011;15314;49.248;6.968;2023-06-14T01:48:50;9.77;;;9.07;;
27977;SDS011;15314;49.248;6.968;2023-06-14T01:49:51;11.30;;;10.35;;
27977;SDS011;15314;49.248;6.968;2023-06-14T01:50:52;10.27;;;9.35;;
27977;SDS011;15314;49.248;6.968;2023-06-14T01:51:52;10.38;;;9.35;;
27977;SDS011;15314;49.248;6.968;2023-06-14T01:52:53;11.68;;;9.60;;
27977;SDS011;15314;49.248;6.968;2023-06-14T01:53:54;11.27;;;10.43;;
27977;SDS011;15314;49.248;6.968;2023-06-14T01:54:55;10.90;;;10.00;;
27977;SDS011;15314;49.248;6.968;2023-06-14T01:55:55;10.93;;;9.85;;
27977;SDS011;15314;49.248;6.968;2023-06-14T01:56:56;10.85;;;9.85;;
27977;SDS011;15314;49.248;6.968;2023-06-14T01:57:57;10.85;;;9.98;;
27977;SDS011;15314;49.248;6.968;2023-06-14T01:58:58;11.00;;;10.00;;
27977;SDS011;15314;49.248;6.968;2023-06-14T01:59:59;10.25;;;9.57;;
27977;SDS011;15314;49.248;6.968;2023-06-14T02:01:00;11.18;;;10.20;;
27977;SDS011;15314;49.248;6.968;2023-06-14T02:02:02;10.75;;;9.95;;
27977;SDS011;15314;49.248;6.968;2023-06-14T02:03:03;10.48;;;9.68;;
27977;SDS011;15314;49.248;6.968;2023-06-14T02:04:04;10.68;;;9.85;;
27977;SDS011;15314;49.248;6.968;2023-06-14T02:05:05;10.60;;;9.80;;
27977;SDS011;15314;49.248;6.968;2023-06-14T02:06:05;12.40;;;10.27;;
27977;SDS011;15314;49.248;6.968;2023-06-14T02:07:06;10.23;;;9.50;;
27977;SDS011;15314;49.248;6.968;2023-06-14T02:08:08;10.95;;;10.02;;
27977;SDS011;15314;49.248;6.968;2023-06-14T02:09:08;11.95;;;10.85;;
27977;SDS011;15314;49.248;6.968;2023-06-14T02:10:09;10.80;;;9.85;;
27977;SDS011;15314;49.248;6.968;2023-06-14T02:11:10;11.30;;;10.15;;
27977;SDS011;15314;49.248;6.968;2023-06-14T02:12:10;11.35;;;10.40;;
27977;SDS011;15314;49.248;6.968;2023-06-14T02:13:11;10.32;;;9.63;;
27977;SDS011;15314;49.248;6.968;2023-06-14T02:14:12;9.98;;;9.32;;
27977;SDS011;15314;49.248;6.968;2023-06-14T02:15:13;11.13;;;10.23;;
27977;SDS011;15314;49.248;6.968;2023-06-14T02:16:16;10.65;;;9.82;;
27977;SDS011;15314;49.248;6.968;2023-06-14T02:17:17;11.07;;;10.13;;
27977;SDS011;15314;49.248;6.968;2023-06-14T02:18:17;11.18;;;10.38;;
27977;SDS011;15314;49.248;6.968;2023-06-14T02:19:19;10.80;;;10.00;;
27977;SDS011;15314;49.248;6.968;2023-06-14T02:20:20;11.32;;;10.52;;
27977;SDS011;15314;49.248;6.968;2023-06-14T02:21:21;11.70;;;10.65;;
27977;SDS011;15314;49.248;6.968;2023-06-14T02:22:21;11.25;;;10.23;;
27977;SDS011;15314;49.248;6.968;2023-06-14T02:23:22;9.73;;;8.95;;
27977;SDS011;15314;49.248;6.968;2023-06-14T02:24:23;10.52;;;9.73;;
27977;SDS011;15314;49.248;6.968;2023-06-14T02:25:24;10.63;;;9.85;;
27977;SDS011;15314;49.248;6.968;2023-06-14T02:26:24;10.23;;;9.38;;
27977;SDS011;15314;49.248;6.968;2023-06-14T02:27:28;11.15;;;10.35;;
27977;SDS011;15314;49.248;6.968;2023-06-14T02:28:29;10.85;;;9.98;;
27977;SDS011;15314;49.248;6.968;2023-06-14T02:29:30;11.52;;;10.15;;
27977;SDS011;15314;49.248;6.968;2023-06-14T02:30:30;10.63;;;9.82;;
27977;SDS011;15314;49.248;6.968;2023-06-14T02:31:32;10.35;;;9.60;;
27977;SDS011;15314;49.248;6.968;2023-06-14T02:32:33;10.60;;;9.90;;
27977;SDS011;15314;49.248;6.968;2023-06-14T02:33:36;10.63;;;9.80;;
27977;SDS011;15314;49.248;6.968;2023-06-14T02:34:38;10.13;;;9.45;;
27977;SDS011;15314;49.248;6.968;2023-06-14T02:35:41;10.90;;;9.88;;
27977;SDS011;15314;49.248;6.968;2023-06-14T02:36:45;11.40;;;10.50;;
27977;SDS011;15314;49.248;6.968;2023-06-14T02:37:46;11.40;;;10.70;;
27977;SDS011;15314;49.248;6.968;2023-06-14T02:38:47;10.65;;;9.85;;
27977;SDS011;15314;49.248;6.968;2023-06-14T02:39:48;11.40;;;10.45;;
27977;SDS011;15314;49.248;6.968;2023-06-14T02:40:48;10.95;;;10.05;;
27977;SDS011;15314;49.248;6.968;2023-06-14T02:41:49;10.30;;;9.60;;
27977;SDS011;15314;49.248;6.968;2023-06-14T02:42:50;10.55;;;9.85;;
27977;SDS011;15314;49.248;6.968;2023-06-14T02:43:51;10.55;;;9.85;;
27977;SDS011;15314;49.248;6.968;2023-06-14T02:44:52;10.18;;;9.30;;
27977;SDS011;15314;49.248;6.968;2023-06-14T02:45:52;11.25;;;10.38;;
27977;SDS011;15314;49.248;6.968;2023-06-14T02:46:53;10.93;;;9.98;;
27977;SDS011;15314;49.248;6.968;2023-06-14T02:47:55;11.32;;;10.32;;
27977;SDS011;15314;49.248;6.968;2023-06-14T02:48:56;10.88;;;9.98;;
27977;SDS011;15314;49.248;6.968;2023-06-14T02:49:56;11.38;;;10.23;;
27977;SDS011;15314;49.248;6.968;2023-06-14T02:50:57;10.95;;;10.05;;
27977;SDS011;15314;49.248;6.968;2023-06-14T02:51:58;11.38;;;10.35;;
27977;SDS011;15314;49.248;6.968;2023-06-14T02:52:58;11.50;;;10.55;;
27977;SDS011;15314;49.248;6.968;2023-06-14T02:53:59;10.73;;;9.80;;
27977;SDS011;15314;49.248;6.968;2023-06-14T02:54:59;11.02;;;10.13;;
27977;SDS011;15314;49.248;6.968;2023-06-14T02:56:00;10.25;;;9.32;;
27977;SDS011;15314;49.248;6.968;2023-06-14T02:57:01;11.13;;;10.23;;
27977;SDS011;15314;49.248;6.968;2023-06-14T02:58:02;11.07;;;10.23;;
27977;SDS011;15314;49.248;6.968;2023-06-14T02:59:02;10.50;;;9.70;;
27977;SDS011;15314;49.248;6.968;2023-06-14T03:00:03;10.38;;;9.60;;
27977;SDS011;15314;49.248;6.968;2023-06-14T03:01:05;10.52;;;9.63;;
27977;SDS011;15314;49.248;6.968;2023-06-14T03:02:07;10.75;;;9.82;;
27977;SDS011;15314;49.248;6.968;2023-06-14T03:03:08;10.52;;;9.73;;
27977;SDS011;15314;49.248;6.968;2023-06-14T03:04:16;10.95;;;10.13;;
27977;SDS011;15314;49.248;6.968;2023-06-14T03:05:16;11.77;;;10.57;;
27977;SDS011;15314;49.248;6.968;2023-06-14T03:06:21;11.10;;;10.10;;
27977;SDS011;15314;49.248;6.968;2023-06-14T03:07:25;10.27;;;9.55;;
27977;SDS011;15314;49.248;6.968;2023-06-14T03:08:27;10.80;;;9.98;;
27977;SDS011;15314;49.248;6.968;2023-06-14T03:09:29;12.85;;;9.80;;
27977;SDS011;15314;49.248;6.968;2023-06-14T03:10:29;11.15;;;10.27;;
27977;SDS011;15314;49.248;6.968;2023-06-14T03:11:30;10.57;;;9.88;;
27977;SDS011;15314;49.248;6.968;2023-06-14T03:12:31;10.80;;;9.93;;
27977;SDS011;15314;49.248;6.968;2023-06-14T03:13:32;10.90;;;10.02;;
27977;SDS011;15314;49.248;6.968;2023-06-14T03:14:34;10.45;;;9.73;;
27977;SDS011;15314;49.248;6.968;2023-06-14T03:15:34;10.82;;;10.02;;
27977;SDS011;15314;49.248;6.968;2023-06-14T03:16:35;10.63;;;9.93;;
27977;SDS011;15314;49.248;6.968;2023-06-14T03:17:37;10.73;;;9.93;;
27977;SDS011;15314;49.248;6.968;2023-06-14T03:18:38;10.93;;;10.13;;
27977;SDS011;15314;49.248;6.968;2023-06-14T03:19:39;11.30;;;10.60;;
27977;SDS011;15314;49.248;6.968;2023-06-14T03:20:41;10.55;;;9.65;;
27977;SDS011;15314;49.248;6.968;2023-06-14T03:21:42;11.45;;;10.45;;
27977;SDS011;15314;49.248;6.968;2023-06-14T03:22:44;10.85;;;9.93;;
27977;SDS011;15314;49.248;6.968;2023-06-14T03:23:46;10.13;;;9.32;;
27977;SDS011;15314;49.248;6.968;2023-06-14T03:24:48;10.98;;;10.07;;
27977;SDS011;15314;49.248;6.968;2023-06-14T03:25:49;12.18;;;11.07;;
27977;SDS011;15314;49.248;6.968;2023-06-14T03:26:49;10.50;;;9.50;;
27977;SDS011;15314;49.248;6.968;2023-06-14T03:27:50;11.52;;;10.45;;
27977;SDS011;15314;49.248;6.968;2023-06-14T03:28:50;11.27;;;10.30;;
27977;SDS011;15314;49.248;6.968;2023-06-14T03:29:51;14.70;;;11.45;;
27977;SDS011;15314;49.248;6.968;2023-06-14T03:30:52;11.43;;;10.55;;
27977;SDS011;15314;49.248;6.968;2023-06-14T03:32:02;11.88;;;10.45;;
27977;SDS011;15314;49.248;6.968;2023-06-14T03:33:03;10.75;;;9.95;;
27977;SDS011;15314;49.248;6.968;2023-06-14T03:34:04;11.30;;;10.38;;
27977;SDS011;15314;49.248;6.968;2023-06-14T03:35:05;11.60;;;10.63;;
27977;SDS011;15314;49.248;6.968;2023-06-14T03:36:06;11.32;;;10.52;;
27977;SDS011;15314;49.248;6.968;2023-06-14T03:37:07;11.23;;;10.23;;
27977;SDS011;15314;49.248;6.968;2023-06-14T03:38:07;11.50;;;10.63;;
27977;SDS011;15314;49.248;6.968;2023-06-14T03:39:08;11.55;;;10.63;;
27977;SDS011;15314;49.248;6.968;2023-06-14T03:40:09;11.35;;;10.63;;
27977;SDS011;15314;49.248;6.968;2023-06-14T03:41:10;11.57;;;10.68;;
27977;SDS011;15314;49.248;6.968;2023-06-14T03:42:11;11.55;;;10.73;;
27977;SDS011;15314;49.248;6.968;2023-06-14T03:43:12;12.18;;;11.30;;
27977;SDS011;15314;49.248;6.968;2023-06-14T03:44:15;11.73;;;10.82;;
27977;SDS011;15314;49.248;6.968;2023-06-14T03:45:17;12.63;;;11.43;;
27977;SDS011;15314;49.248;6.968;2023-06-14T03:46:17;11.75;;;10.80;;
27977;SDS011;15314;49.248;6.968;2023-06-14T03:47:18;11.90;;;11.10;;
27977;SDS011;15314;49.248;6.968;2023-06-14T03:48:19;12.45;;;10.88;;
27977;SDS011;15314;49.248;6.968;2023-06-14T03:49:19;11.05;;;10.25;;
27977;SDS011;15314;49.248;6.968;2023-06-14T03:50:21;11.98;;;10.98;;
27977;SDS011;15314;49.248;6.968;2023-06-14T03:51:22;11.57;;;10.73;;
27977;SDS011;15314;49.248;6.968;2023-06-14T03:52:22;10.88;;;10.00;;
27977;SDS011;15314;49.248;6.968;2023-06-14T03:53:23;10.65;;;9.95;;
27977;SDS011;15314;49.248;6.968;2023-06-14T03:54:24;11.15;;;10.20;;
27977;SDS011;15314;49.248;6.968;2023-06-14T03:55:24;12.20;;;10.85;;
27977;SDS011;15314;49.248;6.968;2023-06-14T03:56:25;11.32;;;10.20;;
27977;SDS011;15314;49.248;6.968;2023-06-14T03:57:26;12.80;;;11.18;;
27977;SDS011;15314;49.248;6.968;2023-06-14T03:58:27;11.20;;;10.30;;
27977;SDS011;15314;49.248;6.968;2023-06-14T03:59:28;11.27;;;10.48;;
27977;SDS011;15314;49.248;6.968;2023-06-14T04:00:28;11.95;;;10.93;;
27977;SDS011;15314;49.248;6.968;2023-06-14T04:01:30;11.10;;;10.38;;
27977;SDS011;15314;49.248;6.968;2023-06-14T04:02:31;12.18;;;11.05;;
27977;SDS011;15314;49.248;6.968;2023-06-14T04:03:31;11.48;;;10.57;;
27977;SDS011;15314;49.248;6.968;2023-06-14T04:04:33;11.52;;;10.55;;
27977;SDS011;15314;49.248;6.968;2023-06-14T04:05:35;12.35;;;11.18;;
27977;SDS011;15314;49.248;6.968;2023-06-14T04:06:36;12.43;;;11.50;;
27977;SDS011;15314;49.248;6.968;2023-06-14T04:07:36;11.70;;;10.68;;
27977;SDS011;15314;49.248;6.968;2023-06-14T04:08:45;10.80;;;10.00;;
27977;SDS011;15314;49.248;6.968;2023-06-14T04:09:45;11.23;;;10.35;;
27977;SDS011;15314;49.248;6.968;2023-06-14T04:10:46;11.23;;;10.20;;
27977;SDS011;15314;49.248;6.968;2023-06-14T04:11:47;11.20;;;10.25;;
27977;SDS011;15314;49.248;6.968;2023-06-14T04:12:48;11.65;;;10.57;;
27977;SDS011;15314;49.248;6.968;2023-06-14T04:13:49;11.25;;;10.25;;
27977;SDS011;15314;49.248;6.968;2023-06-14T04:14:49;12.02;;;10.88;;
27977;SDS011;15314;49.248;6.968;2023-06-14T04:15:51;12.25;;;11.18;;
27977;SDS011;15314;49.248;6.968;2023-06-14T04:16:51;10.15;;;9.38;;
27977;SDS011;15314;49.248;6.968;2023-06-14T04:17:52;10.95;;;10.10;;
27977;SDS011;15314;49.248;6.968;2023-06-14T04:18:57;11.07;;;10.27;;
27977;SDS011;15314;49.248;6.968;2023-06-14T04:19:58;11.75;;;10.75;;
27977;SDS011;15314;49.248;6.968;2023-06-14T04:20:59;11.00;;;10.18;;
27977;SDS011;15314;49.248;6.968;2023-06-14T04:22:00;11.32;;;10.43;;
27977;SDS011;15314;49.248;6.968;2023-06-14T04:23:11;12.43;;;11.35;;
27977;SDS011;15314;49.248;6.968;2023-06-14T04:24:13;11.57;;;10.77;;
27977;SDS011;15314;49.248;6.968;2023-06-14T04:25:14;12.38;;;10.27;;
27977;SDS011;15314;49.248;6.968;2023-06-14T04:26:15;11.65;;;10.70;;
27977;SDS011;15314;49.248;6.968;2023-06-14T04:27:16;11.07;;;10.27;;
27977;SDS011;15314;49.248;6.968;2023-06-14T04:28:21;11.48;;;10.48;;
27977;SDS011;15314;49.248;6.968;2023-06-14T04:29:26;11.95;;;10.90;;
27977;SDS011;15314;49.248;6.968;2023-06-14T04:30:29;11.32;;;10.23;;
27977;SDS011;15314;49.248;6.968;2023-06-14T04:31:31;11.57;;;10.52;;
27977;SDS011;15314;49.248;6.968;2023-06-14T04:32:37;11.05;;;10.25;;
27977;SDS011;15314;49.248;6.968;2023-06-14T04:33:42;11.85;;;10.70;;
27977;SDS011;15314;49.248;6.968;2023-06-14T04:34:43;10.90;;;9.98;;
27977;SDS011;15314;49.248;6.968;2023-06-14T04:35:44;11.23;;;10.15;;
27977;SDS011;15314;49.248;6.968;2023-06-14T04:36:47;11.82;;;10.82;;
27977;SDS011;15314;49.248;6.968;2023-06-14T04:37:53;11.20;;;10.40;;
27977;SDS011;15314;49.248;6.968;2023-06-14T04:38:53;12.02;;;11.00;;
27977;SDS011;15314;49.248;6.968;2023-06-14T04:39:55;11.95;;;10.18;;
27977;SDS011;15314;49.248;6.968;2023-06-14T04:40:56;11.38;;;10.40;;
27977;SDS011;15314;49.248;6.968;2023-06-14T04:41:56;12.65;;;11.65;;
27977;SDS011;15314;49.248;6.968;2023-06-14T04:43:00;12.13;;;10.90;;
27977;SDS011;15314;49.248;6.968;2023-06-14T04:44:01;11.75;;;10.68;;
27977;SDS011;15314;49.248;6.968;2023-06-14T04:45:02;13.80;;;11.02;;
27977;SDS011;15314;49.248;6.968;2023-06-14T04:46:05;11.50;;;10.60;;
27977;SDS011;15314;49.248;6.968;2023-06-14T04:47:10;10.57;;;9.77;;
27977;SDS011;15314;49.248;6.968;2023-06-14T04:48:16;11.60;;;10.60;;
27977;SDS011;15314;49.248;6.968;2023-06-14T04:49:20;12.57;;;10.80;;
27977;SDS011;15314;49.248;6.968;2023-06-14T04:50:23;12.02;;;10.88;;
27977;SDS011;15314;49.248;6.968;2023-06-14T04:51:24;12.10;;;10.85;;
27977;SDS011;15314;49.248;6.968;2023-06-14T04:52:29;11.73;;;10.73;;
27977;SDS011;15314;49.248;6.968;2023-06-14T04:53:30;11.82;;;10.93;;
27977;SDS011;15314;49.248;6.968;2023-06-14T04:54:31;11.32;;;10.30;;
27977;SDS011;15314;49.248;6.968;2023-06-14T04:55:33;11.07;;;10.30;;
27977;SDS011;15314;49.248;6.968;2023-06-14T04:56:34;10.63;;;9.77;;
27977;SDS011;15314;49.248;6.968;2023-06-14T04:57:35;11.48;;;10.48;;
27977;SDS011;15314;49.248;6.968;2023-06-14T04:58:35;11.63;;;10.65;;
27977;SDS011;15314;49.248;6.968;2023-06-14T04:59:36;11.10;;;10.35;;
27977;SDS011;15314;49.248;6.968;2023-06-14T05:00:36;11.77;;;10.80;;
27977;SDS011;15314;49.248;6.968;2023-06-14T05:01:37;12.25;;;11.35;;
27977;SDS011;15314;49.248;6.968;2023-06-14T05:02:38;11.65;;;10.52;;
27977;SDS011;15314;49.248;6.968;2023-06-14T05:03:38;11.43;;;10.48;;
27977;SDS011;15314;49.248;6.968;2023-06-14T05:04:39;11.88;;;10.88;;
27977;SDS011;15314;49.248;6.968;2023-06-14T05:05:40;12.23;;;10.85;;
27977;SDS011;15314;49.248;6.968;2023-06-14T05:06:44;11.48;;;10.65;;
27977;SDS011;15314;49.248;6.968;2023-06-14T05:07:45;11.15;;;10.30;;
27977;SDS011;15314;49.248;6.968;2023-06-14T05:08:46;12.38;;;11.27;;
27977;SDS011;15314;49.248;6.968;2023-06-14T05:09:47;11.90;;;10.90;;
27977;SDS011;15314;49.248;6.968;2023-06-14T05:10:47;12.35;;;11.25;;
27977;SDS011;15314;49.248;6.968;2023-06-14T05:12:08;12.23;;;11.38;;
27977;SDS011;15314;49.248;6.968;2023-06-14T05:13:09;12.18;;;11.02;;
27977;SDS011;15314;49.248;6.968;2023-06-14T05:14:11;12.48;;;11.23;;
27977;SDS011;15314;49.248;6.968;2023-06-14T05:15:12;12.40;;;11.23;;
27977;SDS011;15314;49.248;6.968;2023-06-14T05:16:13;12.90;;;11.52;;
27977;SDS011;15314;49.248;6.968;2023-06-14T05:17:15;12.15;;;11.05;;
27977;SDS011;15314;49.248;6.968;2023-06-14T05:18:17;12.30;;;11.32;;
27977;SDS011;15314;49.248;6.968;2023-06-14T05:19:18;13.10;;;11.98;;
27977;SDS011;15314;49.248;6.968;2023-06-14T05:20:19;13.40;;;12.27;;
27977;SDS011;15314;49.248;6.968;2023-06-14T05:21:19;12.45;;;11.38;;
27977;SDS011;15314;49.248;6.968;2023-06-14T05:22:20;13.95;;;12.35;;
27977;SDS011;15314;49.248;6.968;2023-06-14T05:23:21;12.23;;;11.32;;
27977;SDS011;15314;49.248;6.968;2023-06-14T05:24:21;12.20;;;11.27;;
27977;SDS011;15314;49.248;6.968;2023-06-14T05:25:22;11.98;;;10.82;;
27977;SDS011;15314;49.248;6.968;2023-06-14T05:26:23;12.77;;;11.65;;
27977;SDS011;15314;49.248;6.968;2023-06-14T05:27:25;13.88;;;11.35;;
27977;SDS011;15314;49.248;6.968;2023-06-14T05:28:25;13.43;;;12.18;;
27977;SDS011;15314;49.248;6.968;2023-06-14T05:29:26;12.40;;;11.50;;
27977;SDS011;15314;49.248;6.968;2023-06-14T05:30:27;12.73;;;11.82;;
27977;SDS011;15314;49.248;6.968;2023-06-14T05:31:32;13.20;;;11.73;;
27977;SDS011;15314;49.248;6.968;2023-06-14T05:32:33;12.68;;;11.75;;
27977;SDS011;15314;49.248;6.968;2023-06-14T05:33:34;12.20;;;11.27;;
27977;SDS011;15314;49.248;6.968;2023-06-14T05:34:34;12.32;;;11.27;;
27977;SDS011;15314;49.248;6.968;2023-06-14T05:35:35;12.18;;;11.20;;
27977;SDS011;15314;49.248;6.968;2023-06-14T05:36:37;12.48;;;11.43;;
27977;SDS011;15314;49.248;6.968;2023-06-14T05:37:39;12.05;;;11.07;;
27977;SDS011;15314;49.248;6.968;2023-06-14T05:38:39;12.25;;;10.63;;
27977;SDS011;15314;49.248;6.968;2023-06-14T05:39:40;12.45;;;11.25;;
27977;SDS011;15314;49.248;6.968;2023-06-14T05:40:40;12.27;;;11.30;;
27977;SDS011;15314;49.248;6.968;2023-06-14T05:41:41;11.40;;;10.27;;
27977;SDS011;15314;49.248;6.968;2023-06-14T05:42:42;13.55;;;12.00;;
27977;SDS011;15314;49.248;6.968;2023-06-14T05:43:42;12.30;;;11.27;;
27977;SDS011;15314;49.248;6.968;2023-06-14T05:44:43;11.55;;;10.60;;
27977;SDS011;15314;49.248;6.968;2023-06-14T05:45:44;12.25;;;11.10;;
27977;SDS011;15314;49.248;6.968;2023-06-14T05:46:44;12.52;;;11.45;;
27977;SDS011;15314;49.248;6.968;2023-06-14T05:47:45;13.63;;;11.57;;
27977;SDS011;15314;49.248;6.968;2023-06-14T05:48:46;13.57;;;11.88;;
27977;SDS011;15314;49.248;6.968;2023-06-14T05:49:46;12.50;;;11.52;;
27977;SDS011;15314;49.248;6.968;2023-06-14T05:50:47;11.90;;;11.10;;
27977;SDS011;15314;49.248;6.968;2023-06-14T05:51:47;14.77;;;11.07;;
27977;SDS011;15314;49.248;6.968;2023-06-14T05:52:48;12.50;;;11.30;;
27977;SDS011;15314;49.248;6.968;2023-06-14T05:53:49;12.02;;;11.00;;
27977;SDS011;15314;49.248;6.968;2023-06-14T05:54:50;13.43;;;11.90;;
27977;SDS011;15314;49.248;6.968;2023-06-14T05:55:50;12.25;;;11.45;;
27977;SDS011;15314;49.248;6.968;2023-06-14T05:56:55;13.52;;;12.27;;
27977;SDS011;15314;49.248;6.968;2023-06-14T05:57:55;13.02;;;12.10;;
27977;SDS011;15314;49.248;6.968;2023-06-14T05:58:56;12.43;;;11.63;;
27977;SDS011;15314;49.248;6.968;2023-06-14T05:59:57;12.57;;;11.63;;
27977;SDS011;15314;49.248;6.968;2023-06-14T06:00:58;12.98;;;12.02;;
27977;SDS011;15314;49.248;6.968;2023-06-14T06:01:59;13.38;;;12.10;;
27977;SDS011;15314;49.248;6.968;2023-06-14T06:02:59;13.65;;;12.38;;
27977;SDS011;15314;49.248;6.968;2023-06-14T06:04:00;13.05;;;12.18;;
27977;SDS011;15314;49.248;6.968;2023-06-14T06:05:01;13.27;;;12.30;;
27977;SDS011;15314;49.248;6.968;2023-06-14T06:06:02;14.02;;;12.80;;
27977;SDS011;15314;49.248;6.968;2023-06-14T06:07:03;13.88;;;12.68;;